Weather

Weather Information Services

Current METAR and TAF for Sabadell Airport (LELL).

LELL 231030Z 13012KT 100V160 CAVOK 25/17 Q1007

TAF LELL 230800Z 2309/2409 VRB03KT 9999 FEW060 TX28/2312Z TN14/2406Z BECMG 2309/2311 13010KT BECMG 2318/2320 21008KT

Current METAR and TAF for Gerona Airport (LEGE).

LEGE 231030Z 08005KT 9999 FEW030 26/15 Q1007

TAF AMD LEGE 231015Z 2310/2406 10008KT CAVOK TX31/2314Z TN14/2406Z TEMPO 2310/2315 18010KT BECMG 2318/2320 VRB03KT BECMG 2403/2406 04008KT

Current METAR and TAF for Reus Airport (LERS).

LERS 231030Z VRB08KT CAVOK 27/18 Q1007

TAF AMD LERS 230928Z 2309/2409 VRB03KT 9999 FEW050 TX32/2312Z TN14/2406Z TEMPO 2309/2311 31015G27KT BECMG 2310/2313 12009KT BECMG 2401/2403 29007KT TEMPO 2309/2311 28012KT

Current METAR and TAF for Lleida Airport (LEDA).

LEDA 231030Z 25016KT 210V290 CAVOK 25/12 Q1009

TAF LEDA 230800Z 2309/2409 27012KT 9999 FEW060 TX32/2315Z TN14/2406Z TEMPO 2312/2318 28015G27KT BECMG 2318/2320 26006KT

Other amazing weather tools for weather forecast

Ventusky Wind and Temperature Maps

https://www.estofex.org/

Here you have some local Meteo Websites you can check, when flying in Catalunya:

RAW and Decoded METARS
https://e6bx.com/weather/LELL/?showDecoded=1&focuspoint=pressurealt